sensor_id;sensor_type;location;lat;lon;timestamp;P1;durP1;ratioP1;P2;durP2;ratioP2
61709;SDS011;47633;51.494;5.386;2023-07-22T00:01:30;7.20;;;4.75;;
61709;SDS011;47633;51.494;5.386;2023-07-22T00:03:56;7.57;;;5.10;;
61709;SDS011;47633;51.494;5.386;2023-07-22T00:06:22;7.30;;;4.88;;
61709;SDS011;47633;51.494;5.386;2023-07-22T00:08:47;7.85;;;5.00;;
61709;SDS011;47633;51.494;5.386;2023-07-22T00:11:12;7.03;;;4.60;;
61709;SDS011;47633;51.494;5.386;2023-07-22T00:13:38;6.97;;;5.20;;
61709;SDS011;47633;51.494;5.386;2023-07-22T00:16:03;7.55;;;5.40;;
61709;SDS011;47633;51.494;5.386;2023-07-22T00:18:33;8.00;;;5.40;;
61709;SDS011;47633;51.494;5.386;2023-07-22T00:20:59;7.10;;;5.20;;
61709;SDS011;47633;51.494;5.386;2023-07-22T00:23:24;7.30;;;5.13;;
61709;SDS011;47633;51.494;5.386;2023-07-22T00:25:50;8.07;;;5.28;;
61709;SDS011;47633;51.494;5.386;2023-07-22T00:28:15;6.70;;;4.93;;
61709;SDS011;47633;51.494;5.386;2023-07-22T00:30:41;6.70;;;4.82;;
61709;SDS011;47633;51.494;5.386;2023-07-22T00:33:07;7.00;;;4.97;;
61709;SDS011;47633;51.494;5.386;2023-07-22T00:35:33;6.90;;;5.25;;
61709;SDS011;47633;51.494;5.386;2023-07-22T00:37:58;8.65;;;5.20;;
61709;SDS011;47633;51.494;5.386;2023-07-22T00:40:25;6.93;;;5.03;;
61709;SDS011;47633;51.494;5.386;2023-07-22T00:42:50;6.80;;;5.25;;
61709;SDS011;47633;51.494;5.386;2023-07-22T00:45:16;6.82;;;5.03;;
61709;SDS011;47633;51.494;5.386;2023-07-22T00:47:41;6.97;;;4.88;;
61709;SDS011;47633;51.494;5.386;2023-07-22T00:50:07;6.80;;;4.68;;
61709;SDS011;47633;51.494;5.386;2023-07-22T00:52:33;7.13;;;5.40;;
61709;SDS011;47633;51.494;5.386;2023-07-22T00:54:59;7.57;;;5.05;;
61709;SDS011;47633;51.494;5.386;2023-07-22T00:57:24;7.68;;;4.88;;
61709;SDS011;47633;51.494;5.386;2023-07-22T00:59:50;8.48;;;5.57;;
61709;SDS011;47633;51.494;5.386;2023-07-22T01:02:16;7.88;;;5.18;;
61709;SDS011;47633;51.494;5.386;2023-07-22T01:04:42;7.40;;;4.70;;
61709;SDS011;47633;51.494;5.386;2023-07-22T01:07:08;7.00;;;5.25;;
61709;SDS011;47633;51.494;5.386;2023-07-22T01:09:38;6.95;;;5.10;;
61709;SDS011;47633;51.494;5.386;2023-07-22T01:12:05;7.88;;;5.20;;
61709;SDS011;47633;51.494;5.386;2023-07-22T01:14:38;6.88;;;4.85;;
61709;SDS011;47633;51.494;5.386;2023-07-22T01:17:06;8.98;;;5.30;;
61709;SDS011;47633;51.494;5.386;2023-07-22T01:19:32;8.35;;;4.53;;
61709;SDS011;47633;51.494;5.386;2023-07-22T01:22:02;6.78;;;5.05;;
61709;SDS011;47633;51.494;5.386;2023-07-22T01:24:29;7.30;;;5.28;;
61709;SDS011;47633;51.494;5.386;2023-07-22T01:26:55;6.82;;;5.15;;
61709;SDS011;47633;51.494;5.386;2023-07-22T01:29:21;6.70;;;5.05;;
61709;SDS011;47633;51.494;5.386;2023-07-22T01:31:48;7.40;;;4.93;;
61709;SDS011;47633;51.494;5.386;2023-07-22T01:34:15;7.05;;;5.00;;
61709;SDS011;47633;51.494;5.386;2023-07-22T01:36:40;7.30;;;5.13;;
61709;SDS011;47633;51.494;5.386;2023-07-22T01:39:06;7.10;;;4.68;;
61709;SDS011;47633;51.494;5.386;2023-07-22T01:41:31;6.97;;;5.47;;
61709;SDS011;47633;51.494;5.386;2023-07-22T01:43:56;6.70;;;4.82;;
61709;SDS011;47633;51.494;5.386;2023-07-22T01:46:22;7.90;;;4.90;;
61709;SDS011;47633;51.494;5.386;2023-07-22T01:48:47;7.10;;;5.40;;
61709;SDS011;47633;51.494;5.386;2023-07-22T01:51:13;9.25;;;5.68;;
61709;SDS011;47633;51.494;5.386;2023-07-22T01:53:38;7.78;;;5.45;;
61709;SDS011;47633;51.494;5.386;2023-07-22T01:56:03;7.57;;;5.05;;
61709;SDS011;47633;51.494;5.386;2023-07-22T01:58:30;7.60;;;5.60;;
61709;SDS011;47633;51.494;5.386;2023-07-22T02:00:55;7.90;;;5.50;;
61709;SDS011;47633;51.494;5.386;2023-07-22T02:03:20;7.40;;;5.30;;
61709;SDS011;47633;51.494;5.386;2023-07-22T02:05:46;6.30;;;4.90;;
61709;SDS011;47633;51.494;5.386;2023-07-22T02:08:11;7.20;;;5.30;;
61709;SDS011;47633;51.494;5.386;2023-07-22T02:10:37;8.15;;;5.30;;
61709;SDS011;47633;51.494;5.386;2023-07-22T02:13:02;6.97;;;5.40;;
61709;SDS011;47633;51.494;5.386;2023-07-22T02:15:29;7.80;;;5.60;;
61709;SDS011;47633;51.494;5.386;2023-07-22T02:17:55;6.95;;;5.00;;
61709;SDS011;47633;51.494;5.386;2023-07-22T02:20:21;6.95;;;5.35;;
61709;SDS011;47633;51.494;5.386;2023-07-22T02:22:47;6.97;;;5.00;;
61709;SDS011;47633;51.494;5.386;2023-07-22T02:25:13;7.55;;;5.63;;
61709;SDS011;47633;51.494;5.386;2023-07-22T02:27:40;7.53;;;5.75;;
61709;SDS011;47633;51.494;5.386;2023-07-22T02:30:06;7.53;;;5.65;;
61709;SDS011;47633;51.494;5.386;2023-07-22T02:32:35;7.25;;;5.18;;
61709;SDS011;47633;51.494;5.386;2023-07-22T02:35:04;7.32;;;5.50;;
61709;SDS011;47633;51.494;5.386;2023-07-22T02:37:31;6.00;;;4.72;;
61709;SDS011;47633;51.494;5.386;2023-07-22T02:39:56;8.45;;;5.50;;
61709;SDS011;47633;51.494;5.386;2023-07-22T02:42:21;7.53;;;5.45;;
61709;SDS011;47633;51.494;5.386;2023-07-22T02:44:47;8.38;;;5.40;;
61709;SDS011;47633;51.494;5.386;2023-07-22T02:47:13;7.20;;;5.15;;
61709;SDS011;47633;51.494;5.386;2023-07-22T02:49:39;7.30;;;5.07;;
61709;SDS011;47633;51.494;5.386;2023-07-22T02:52:04;7.13;;;5.25;;
61709;SDS011;47633;51.494;5.386;2023-07-22T02:54:31;7.10;;;5.18;;
61709;SDS011;47633;51.494;5.386;2023-07-22T02:56:57;7.72;;;5.30;;
61709;SDS011;47633;51.494;5.386;2023-07-22T02:59:22;6.57;;;5.18;;
61709;SDS011;47633;51.494;5.386;2023-07-22T03:01:49;8.27;;;5.60;;
61709;SDS011;47633;51.494;5.386;2023-07-22T03:04:14;7.43;;;5.07;;
61709;SDS011;47633;51.494;5.386;2023-07-22T03:06:40;7.35;;;5.00;;
61709;SDS011;47633;51.494;5.386;2023-07-22T03:09:07;7.68;;;5.07;;
61709;SDS011;47633;51.494;5.386;2023-07-22T03:11:32;7.32;;;5.60;;
61709;SDS011;47633;51.494;5.386;2023-07-22T03:13:59;7.70;;;5.47;;
61709;SDS011;47633;51.494;5.386;2023-07-22T03:16:24;6.93;;;5.43;;
61709;SDS011;47633;51.494;5.386;2023-07-22T03:18:50;6.82;;;5.45;;
61709;SDS011;47633;51.494;5.386;2023-07-22T03:21:15;7.95;;;5.25;;
61709;SDS011;47633;51.494;5.386;2023-07-22T03:23:41;7.90;;;5.40;;
61709;SDS011;47633;51.494;5.386;2023-07-22T03:26:06;6.97;;;4.88;;
61709;SDS011;47633;51.494;5.386;2023-07-22T03:28:31;7.30;;;5.20;;
61709;SDS011;47633;51.494;5.386;2023-07-22T03:30:57;7.50;;;5.22;;
61709;SDS011;47633;51.494;5.386;2023-07-22T03:33:22;7.22;;;5.53;;
61709;SDS011;47633;51.494;5.386;2023-07-22T03:35:47;8.10;;;5.80;;
61709;SDS011;47633;51.494;5.386;2023-07-22T03:38:13;7.88;;;5.20;;
61709;SDS011;47633;51.494;5.386;2023-07-22T03:40:38;8.00;;;5.53;;
61709;SDS011;47633;51.494;5.386;2023-07-22T03:43:04;6.47;;;5.13;;
61709;SDS011;47633;51.494;5.386;2023-07-22T03:45:29;7.70;;;5.28;;
61709;SDS011;47633;51.494;5.386;2023-07-22T03:47:56;6.82;;;4.95;;
61709;SDS011;47633;51.494;5.386;2023-07-22T03:50:22;8.43;;;5.03;;
61709;SDS011;47633;51.494;5.386;2023-07-22T03:52:48;7.57;;;5.40;;
61709;SDS011;47633;51.494;5.386;2023-07-22T03:55:13;6.80;;;4.85;;
61709;SDS011;47633;51.494;5.386;2023-07-22T03:57:39;6.65;;;4.78;;
61709;SDS011;47633;51.494;5.386;2023-07-22T04:00:05;7.78;;;5.50;;
61709;SDS011;47633;51.494;5.386;2023-07-22T04:02:34;8.05;;;4.93;;
61709;SDS011;47633;51.494;5.386;2023-07-22T04:04:59;7.35;;;4.90;;
61709;SDS011;47633;51.494;5.386;2023-07-22T04:07:25;6.70;;;4.90;;
61709;SDS011;47633;51.494;5.386;2023-07-22T04:09:50;6.72;;;4.78;;
61709;SDS011;47633;51.494;5.386;2023-07-22T04:12:15;7.57;;;5.32;;
61709;SDS011;47633;51.494;5.386;2023-07-22T04:14:41;6.80;;;5.13;;
61709;SDS011;47633;51.494;5.386;2023-07-22T04:17:06;7.75;;;5.15;;
61709;SDS011;47633;51.494;5.386;2023-07-22T04:19:32;6.88;;;4.63;;
61709;SDS011;47633;51.494;5.386;2023-07-22T04:21:57;7.28;;;5.32;;
61709;SDS011;47633;51.494;5.386;2023-07-22T04:24:24;7.53;;;5.18;;
61709;SDS011;47633;51.494;5.386;2023-07-22T04:26:50;8.02;;;4.95;;
61709;SDS011;47633;51.494;5.386;2023-07-22T04:29:15;7.47;;;5.32;;
61709;SDS011;47633;51.494;5.386;2023-07-22T04:31:41;9.38;;;5.20;;
61709;SDS011;47633;51.494;5.386;2023-07-22T04:34:06;7.13;;;5.10;;
61709;SDS011;47633;51.494;5.386;2023-07-22T04:36:32;7.15;;;5.00;;
61709;SDS011;47633;51.494;5.386;2023-07-22T04:38:57;8.85;;;5.05;;
61709;SDS011;47633;51.494;5.386;2023-07-22T04:41:22;7.50;;;5.15;;
61709;SDS011;47633;51.494;5.386;2023-07-22T04:43:48;7.95;;;4.93;;
61709;SDS011;47633;51.494;5.386;2023-07-22T04:46:15;7.78;;;5.20;;
61709;SDS011;47633;51.494;5.386;2023-07-22T04:48:40;8.73;;;5.30;;
61709;SDS011;47633;51.494;5.386;2023-07-22T04:51:06;6.90;;;4.93;;
61709;SDS011;47633;51.494;5.386;2023-07-22T04:53:32;6.75;;;4.95;;
61709;SDS011;47633;51.494;5.386;2023-07-22T04:55:58;7.03;;;5.22;;
61709;SDS011;47633;51.494;5.386;2023-07-22T04:58:23;6.60;;;4.85;;
61709;SDS011;47633;51.494;5.386;2023-07-22T05:00:49;7.13;;;4.90;;
61709;SDS011;47633;51.494;5.386;2023-07-22T05:03:14;6.07;;;4.50;;
61709;SDS011;47633;51.494;5.386;2023-07-22T05:05:40;8.00;;;5.47;;
61709;SDS011;47633;51.494;5.386;2023-07-22T05:08:06;6.30;;;4.30;;
61709;SDS011;47633;51.494;5.386;2023-07-22T05:10:33;7.57;;;5.03;;
61709;SDS011;47633;51.494;5.386;2023-07-22T05:12:58;7.47;;;4.80;;
61709;SDS011;47633;51.494;5.386;2023-07-22T05:15:24;7.18;;;5.18;;
61709;SDS011;47633;51.494;5.386;2023-07-22T05:17:50;6.65;;;5.00;;
61709;SDS011;47633;51.494;5.386;2023-07-22T05:20:15;7.55;;;4.78;;
61709;SDS011;47633;51.494;5.386;2023-07-22T05:22:40;7.18;;;4.85;;
61709;SDS011;47633;51.494;5.386;2023-07-22T05:25:07;6.68;;;4.70;;
61709;SDS011;47633;51.494;5.386;2023-07-22T05:27:33;6.97;;;5.07;;
61709;SDS011;47633;51.494;5.386;2023-07-22T05:29:58;7.65;;;4.80;;
61709;SDS011;47633;51.494;5.386;2023-07-22T05:32:23;8.88;;;4.90;;
61709;SDS011;47633;51.494;5.386;2023-07-22T05:34:49;7.60;;;5.10;;
61709;SDS011;47633;51.494;5.386;2023-07-22T05:37:14;7.68;;;5.03;;
61709;SDS011;47633;51.494;5.386;2023-07-22T05:39:39;6.97;;;4.78;;
61709;SDS011;47633;51.494;5.386;2023-07-22T05:42:05;7.22;;;5.18;;
61709;SDS011;47633;51.494;5.386;2023-07-22T05:44:31;7.00;;;4.88;;
61709;SDS011;47633;51.494;5.386;2023-07-22T05:46:56;6.93;;;4.70;;
61709;SDS011;47633;51.494;5.386;2023-07-22T05:49:21;7.57;;;5.00;;
61709;SDS011;47633;51.494;5.386;2023-07-22T05:51:46;7.82;;;4.95;;
61709;SDS011;47633;51.494;5.386;2023-07-22T05:54:12;7.05;;;4.78;;
61709;SDS011;47633;51.494;5.386;2023-07-22T05:56:37;7.38;;;4.97;;
61709;SDS011;47633;51.494;5.386;2023-07-22T05:59:02;7.32;;;5.00;;
61709;SDS011;47633;51.494;5.386;2023-07-22T06:01:28;7.95;;;4.90;;
61709;SDS011;47633;51.494;5.386;2023-07-22T06:03:53;7.45;;;4.93;;
61709;SDS011;47633;51.494;5.386;2023-07-22T06:06:18;8.30;;;4.70;;
61709;SDS011;47633;51.494;5.386;2023-07-22T06:08:44;6.80;;;4.85;;
61709;SDS011;47633;51.494;5.386;2023-07-22T06:11:09;7.50;;;5.10;;
61709;SDS011;47633;51.494;5.386;2023-07-22T06:13:35;7.28;;;5.03;;
61709;SDS011;47633;51.494;5.386;2023-07-22T06:16:00;6.95;;;4.82;;
61709;SDS011;47633;51.494;5.386;2023-07-22T06:18:25;7.15;;;5.00;;
61709;SDS011;47633;51.494;5.386;2023-07-22T06:20:51;7.93;;;5.10;;
61709;SDS011;47633;51.494;5.386;2023-07-22T06:23:16;7.47;;;4.82;;
61709;SDS011;47633;51.494;5.386;2023-07-22T06:25:42;8.30;;;4.95;;
61709;SDS011;47633;51.494;5.386;2023-07-22T06:28:07;8.98;;;5.15;;
61709;SDS011;47633;51.494;5.386;2023-07-22T06:30:33;6.88;;;5.03;;
61709;SDS011;47633;51.494;5.386;2023-07-22T06:32:58;6.95;;;4.95;;
61709;SDS011;47633;51.494;5.386;2023-07-22T06:35:24;7.75;;;5.07;;
61709;SDS011;47633;51.494;5.386;2023-07-22T06:37:49;7.40;;;4.75;;
61709;SDS011;47633;51.494;5.386;2023-07-22T06:40:14;6.97;;;4.53;;
61709;SDS011;47633;51.494;5.386;2023-07-22T06:42:39;7.63;;;4.95;;
61709;SDS011;47633;51.494;5.386;2023-07-22T06:45:05;7.28;;;5.35;;
61709;SDS011;47633;51.494;5.386;2023-07-22T06:47:31;6.38;;;4.53;;
61709;SDS011;47633;51.494;5.386;2023-07-22T06:49:56;7.30;;;5.10;;
61709;SDS011;47633;51.494;5.386;2023-07-22T06:52:22;7.35;;;4.88;;
61709;SDS011;47633;51.494;5.386;2023-07-22T06:54:47;9.07;;;5.15;;
61709;SDS011;47633;51.494;5.386;2023-07-22T06:57:13;8.15;;;4.53;;
61709;SDS011;47633;51.494;5.386;2023-07-22T06:59:38;9.88;;;5.10;;
61709;SDS011;47633;51.494;5.386;2023-07-22T07:02:04;6.85;;;4.93;;
61709;SDS011;47633;51.494;5.386;2023-07-22T07:04:29;8.35;;;4.57;;
61709;SDS011;47633;51.494;5.386;2023-07-22T07:06:55;7.25;;;4.85;;
61709;SDS011;47633;51.494;5.386;2023-07-22T07:09:20;8.15;;;5.03;;
61709;SDS011;47633;51.494;5.386;2023-07-22T07:11:45;7.05;;;4.70;;
61709;SDS011;47633;51.494;5.386;2023-07-22T07:14:11;7.50;;;4.82;;
61709;SDS011;47633;51.494;5.386;2023-07-22T07:16:37;9.25;;;5.10;;
61709;SDS011;47633;51.494;5.386;2023-07-22T07:19:02;6.63;;;4.82;;
61709;SDS011;47633;51.494;5.386;2023-07-22T07:21:27;8.93;;;4.65;;
61709;SDS011;47633;51.494;5.386;2023-07-22T07:23:53;7.53;;;4.80;;
61709;SDS011;47633;51.494;5.386;2023-07-22T07:26:19;8.70;;;4.70;;
61709;SDS011;47633;51.494;5.386;2023-07-22T07:28:45;8.18;;;4.72;;
61709;SDS011;47633;51.494;5.386;2023-07-22T07:31:11;8.95;;;4.93;;
61709;SDS011;47633;51.494;5.386;2023-07-22T07:33:37;7.18;;;4.70;;
61709;SDS011;47633;51.494;5.386;2023-07-22T07:36:02;7.65;;;5.07;;
61709;SDS011;47633;51.494;5.386;2023-07-22T07:38:28;7.75;;;4.95;;
61709;SDS011;47633;51.494;5.386;2023-07-22T07:41:12;8.70;;;4.80;;
61709;SDS011;47633;51.494;5.386;2023-07-22T07:43:38;9.67;;;5.07;;
61709;SDS011;47633;51.494;5.386;2023-07-22T07:46:23;8.68;;;4.90;;
61709;SDS011;47633;51.494;5.386;2023-07-22T07:48:52;8.15;;;4.75;;
61709;SDS011;47633;51.494;5.386;2023-07-22T07:51:19;10.52;;;5.22;;
61709;SDS011;47633;51.494;5.386;2023-07-22T07:53:45;12.60;;;5.30;;
61709;SDS011;47633;51.494;5.386;2023-07-22T07:56:14;9.43;;;5.57;;
61709;SDS011;47633;51.494;5.386;2023-07-22T07:58:41;8.80;;;4.70;;
61709;SDS011;47633;51.494;5.386;2023-07-22T08:01:07;8.38;;;4.95;;
61709;SDS011;47633;51.494;5.386;2023-07-22T08:03:33;8.27;;;5.18;;
61709;SDS011;47633;51.494;5.386;2023-07-22T08:05:59;7.28;;;4.82;;
61709;SDS011;47633;51.494;5.386;2023-07-22T08:08:25;6.57;;;4.35;;
61709;SDS011;47633;51.494;5.386;2023-07-22T08:11:00;8.10;;;4.53;;
61709;SDS011;47633;51.494;5.386;2023-07-22T08:13:25;7.97;;;4.72;;
61709;SDS011;47633;51.494;5.386;2023-07-22T08:15:52;8.18;;;5.13;;
61709;SDS011;47633;51.494;5.386;2023-07-22T08:18:18;8.05;;;4.70;;
61709;SDS011;47633;51.494;5.386;2023-07-22T08:20:43;6.93;;;4.22;;
61709;SDS011;47633;51.494;5.386;2023-07-22T08:23:08;7.60;;;4.53;;
61709;SDS011;47633;51.494;5.386;2023-07-22T08:25:34;7.85;;;4.47;;
61709;SDS011;47633;51.494;5.386;2023-07-22T08:27:59;7.95;;;4.68;;
61709;SDS011;47633;51.494;5.386;2023-07-22T08:30:24;7.65;;;4.40;;
61709;SDS011;47633;51.494;5.386;2023-07-22T08:32:50;6.82;;;4.55;;
61709;SDS011;47633;51.494;5.386;2023-07-22T08:35:16;7.13;;;4.55;;
61709;SDS011;47633;51.494;5.386;2023-07-22T08:37:42;8.02;;;4.65;;
61709;SDS011;47633;51.494;5.386;2023-07-22T08:40:08;8.90;;;4.57;;
61709;SDS011;47633;51.494;5.386;2023-07-22T08:42:34;7.22;;;4.50;;
61709;SDS011;47633;51.494;5.386;2023-07-22T08:45:01;7.38;;;4.25;;
61709;SDS011;47633;51.494;5.386;2023-07-22T08:47:31;8.00;;;4.30;;
61709;SDS011;47633;51.494;5.386;2023-07-22T08:49:58;8.18;;;4.15;;
61709;SDS011;47633;51.494;5.386;2023-07-22T08:52:26;7.20;;;4.45;;
61709;SDS011;47633;51.494;5.386;2023-07-22T08:54:52;6.30;;;4.00;;
61709;SDS011;47633;51.494;5.386;2023-07-22T08:57:18;9.70;;;4.40;;
61709;SDS011;47633;51.494;5.386;2023-07-22T08:59:44;8.13;;;4.00;;
61709;SDS011;47633;51.494;5.386;2023-07-22T09:02:12;7.25;;;3.85;;
61709;SDS011;47633;51.494;5.386;2023-07-22T09:04:38;6.80;;;4.10;;
61709;SDS011;47633;51.494;5.386;2023-07-22T09:07:05;6.38;;;3.65;;
61709;SDS011;47633;51.494;5.386;2023-07-22T09:09:31;9.40;;;4.57;;
61709;SDS011;47633;51.494;5.386;2023-07-22T09:11:57;8.35;;;3.90;;
61709;SDS011;47633;51.494;5.386;2023-07-22T09:14:23;7.03;;;3.88;;
61709;SDS011;47633;51.494;5.386;2023-07-22T09:16:49;6.97;;;3.63;;
61709;SDS011;47633;51.494;5.386;2023-07-22T09:19:14;6.28;;;3.83;;
61709;SDS011;47633;51.494;5.386;2023-07-22T09:21:40;7.90;;;4.38;;
61709;SDS011;47633;51.494;5.386;2023-07-22T09:24:21;8.40;;;3.72;;
61709;SDS011;47633;51.494;5.386;2023-07-22T09:26:50;8.00;;;3.55;;
61709;SDS011;47633;51.494;5.386;2023-07-22T09:29:16;6.38;;;3.92;;
61709;SDS011;47633;51.494;5.386;2023-07-22T09:31:50;6.15;;;3.67;;
61709;SDS011;47633;51.494;5.386;2023-07-22T09:34:17;5.75;;;3.60;;
61709;SDS011;47633;51.494;5.386;2023-07-22T09:36:50;6.55;;;4.25;;
61709;SDS011;47633;51.494;5.386;2023-07-22T09:39:19;7.40;;;3.78;;
61709;SDS011;47633;51.494;5.386;2023-07-22T09:41:44;11.57;;;3.50;;
61709;SDS011;47633;51.494;5.386;2023-07-22T09:44:10;6.50;;;3.47;;
61709;SDS011;47633;51.494;5.386;2023-07-22T09:46:36;6.00;;;3.40;;
61709;SDS011;47633;51.494;5.386;2023-07-22T09:49:05;5.90;;;3.65;;
61709;SDS011;47633;51.494;5.386;2023-07-22T09:51:36;8.38;;;3.63;;
61709;SDS011;47633;51.494;5.386;2023-07-22T09:54:03;5.45;;;3.22;;
61709;SDS011;47633;51.494;5.386;2023-07-22T09:56:30;6.43;;;3.30;;
61709;SDS011;47633;51.494;5.386;2023-07-22T09:58:56;7.18;;;3.45;;
61709;SDS011;47633;51.494;5.386;2023-07-22T10:01:24;5.93;;;3.67;;
61709;SDS011;47633;51.494;5.386;2023-07-22T10:03:53;6.05;;;2.95;;
61709;SDS011;47633;51.494;5.386;2023-07-22T10:06:22;11.98;;;3.78;;
61709;SDS011;47633;51.494;5.386;2023-07-22T10:08:51;7.22;;;3.22;;
61709;SDS011;47633;51.494;5.386;2023-07-22T10:11:17;5.85;;;3.40;;
61709;SDS011;47633;51.494;5.386;2023-07-22T10:13:43;7.05;;;3.33;;
61709;SDS011;47633;51.494;5.386;2023-07-22T10:16:09;6.13;;;3.15;;
61709;SDS011;47633;51.494;5.386;2023-07-22T10:18:35;5.78;;;3.28;;
61709;SDS011;47633;51.494;5.386;2023-07-22T10:21:02;6.80;;;3.03;;
61709;SDS011;47633;51.494;5.386;2023-07-22T10:23:28;6.68;;;2.85;;
61709;SDS011;47633;51.494;5.386;2023-07-22T10:25:56;5.05;;;2.40;;
61709;SDS011;47633;51.494;5.386;2023-07-22T10:28:22;5.93;;;2.50;;
61709;SDS011;47633;51.494;5.386;2023-07-22T10:30:48;7.25;;;3.13;;
61709;SDS011;47633;51.494;5.386;2023-07-22T10:33:14;8.40;;;2.90;;
61709;SDS011;47633;51.494;5.386;2023-07-22T10:35:42;5.70;;;3.10;;
61709;SDS011;47633;51.494;5.386;2023-07-22T10:38:25;5.93;;;2.83;;
61709;SDS011;47633;51.494;5.386;2023-07-22T10:40:51;5.80;;;2.70;;
61709;SDS011;47633;51.494;5.386;2023-07-22T10:46:30;5.47;;;3.13;;
61709;SDS011;47633;51.494;5.386;2023-07-22T10:51:37;5.45;;;2.88;;
61709;SDS011;47633;51.494;5.386;2023-07-22T10:54:03;4.75;;;2.70;;
61709;SDS011;47633;51.494;5.386;2023-07-22T10:56:36;4.80;;;2.67;;
61709;SDS011;47633;51.494;5.386;2023-07-22T10:59:01;5.40;;;2.80;;
61709;SDS011;47633;51.494;5.386;2023-07-22T11:07:03;7.18;;;2.70;;
61709;SDS011;47633;51.494;5.386;2023-07-22T11:11:58;6.20;;;2.65;;
61709;SDS011;47633;51.494;5.386;2023-07-22T11:14:49;5.25;;;2.38;;
61709;SDS011;47633;51.494;5.386;2023-07-22T11:17:15;5.30;;;2.63;;
61709;SDS011;47633;51.494;5.386;2023-07-22T11:19:42;4.40;;;2.20;;
61709;SDS011;47633;51.494;5.386;2023-07-22T11:22:08;4.43;;;2.42;;
61709;SDS011;47633;51.494;5.386;2023-07-22T11:24:34;6.68;;;2.25;;
61709;SDS011;47633;51.494;5.386;2023-07-22T11:27:06;7.15;;;2.33;;
61709;SDS011;47633;51.494;5.386;2023-07-22T11:29:33;4.95;;;2.42;;
61709;SDS011;47633;51.494;5.386;2023-07-22T11:31:59;5.43;;;2.67;;
61709;SDS011;47633;51.494;5.386;2023-07-22T11:34:24;4.75;;;2.00;;
61709;SDS011;47633;51.494;5.386;2023-07-22T11:36:51;4.18;;;2.30;;
61709;SDS011;47633;51.494;5.386;2023-07-22T11:39:18;4.25;;;2.10;;
61709;SDS011;47633;51.494;5.386;2023-07-22T11:41:45;4.70;;;2.10;;
61709;SDS011;47633;51.494;5.386;2023-07-22T11:44:12;4.22;;;1.90;;
61709;SDS011;47633;51.494;5.386;2023-07-22T11:46:51;5.20;;;2.20;;
61709;SDS011;47633;51.494;5.386;2023-07-22T11:49:28;5.50;;;2.08;;
61709;SDS011;47633;51.494;5.386;2023-07-22T11:52:00;4.57;;;2.28;;
61709;SDS011;47633;51.494;5.386;2023-07-22T11:54:40;4.82;;;2.20;;
61709;SDS011;47633;51.494;5.386;2023-07-22T11:57:16;5.97;;;2.10;;
61709;SDS011;47633;51.494;5.386;2023-07-22T11:59:44;5.88;;;2.40;;
61709;SDS011;47633;51.494;5.386;2023-07-22T12:02:14;6.13;;;2.10;;
61709;SDS011;47633;51.494;5.386;2023-07-22T12:04:41;4.95;;;1.77;;
61709;SDS011;47633;51.494;5.386;2023-07-22T12:07:20;5.05;;;2.55;;
61709;SDS011;47633;51.494;5.386;2023-07-22T12:09:49;5.50;;;2.22;;
61709;SDS011;47633;51.494;5.386;2023-07-22T12:12:15;8.75;;;2.10;;
61709;SDS011;47633;51.494;5.386;2023-07-22T12:14:41;4.68;;;2.08;;
61709;SDS011;47633;51.494;5.386;2023-07-22T12:17:07;4.55;;;2.10;;
61709;SDS011;47633;51.494;5.386;2023-07-22T12:19:34;8.38;;;2.00;;
61709;SDS011;47633;51.494;5.386;2023-07-22T12:22:00;4.80;;;2.05;;
61709;SDS011;47633;51.494;5.386;2023-07-22T12:24:27;4.32;;;1.85;;
61709;SDS011;47633;51.494;5.386;2023-07-22T12:26:52;4.30;;;2.17;;
61709;SDS011;47633;51.494;5.386;2023-07-22T12:29:19;5.07;;;2.08;;
61709;SDS011;47633;51.494;5.386;2023-07-22T12:31:45;4.40;;;1.92;;
61709;SDS011;47633;51.494;5.386;2023-07-22T12:34:10;4.38;;;2.10;;
61709;SDS011;47633;51.494;5.386;2023-07-22T12:36:35;7.88;;;2.22;;
61709;SDS011;47633;51.494;5.386;2023-07-22T12:39:01;4.95;;;1.70;;
61709;SDS011;47633;51.494;5.386;2023-07-22T12:41:26;4.30;;;1.85;;
61709;SDS011;47633;51.494;5.386;2023-07-22T12:43:52;4.28;;;2.13;;
61709;SDS011;47633;51.494;5.386;2023-07-22T12:46:17;5.47;;;2.38;;
61709;SDS011;47633;51.494;5.386;2023-07-22T12:48:42;4.55;;;2.03;;
61709;SDS011;47633;51.494;5.386;2023-07-22T12:51:08;5.05;;;1.92;;
61709;SDS011;47633;51.494;5.386;2023-07-22T12:53:34;3.55;;;1.65;;
61709;SDS011;47633;51.494;5.386;2023-07-22T12:55:59;5.97;;;1.90;;
61709;SDS011;47633;51.494;5.386;2023-07-22T12:58:25;4.03;;;2.05;;
61709;SDS011;47633;51.494;5.386;2023-07-22T13:00:50;3.47;;;1.80;;
61709;SDS011;47633;51.494;5.386;2023-07-22T13:03:15;5.72;;;1.90;;
61709;SDS011;47633;51.494;5.386;2023-07-22T13:05:41;5.05;;;1.90;;
61709;SDS011;47633;51.494;5.386;2023-07-22T13:08:06;4.72;;;1.98;;
61709;SDS011;47633;51.494;5.386;2023-07-22T13:10:31;3.80;;;1.65;;
61709;SDS011;47633;51.494;5.386;2023-07-22T13:12:59;4.50;;;2.00;;
61709;SDS011;47633;51.494;5.386;2023-07-22T13:15:24;3.92;;;1.90;;
61709;SDS011;47633;51.494;5.386;2023-07-22T13:17:49;4.57;;;1.80;;
61709;SDS011;47633;51.494;5.386;2023-07-22T13:20:15;4.10;;;2.00;;
61709;SDS011;47633;51.494;5.386;2023-07-22T13:22:40;3.88;;;2.00;;
61709;SDS011;47633;51.494;5.386;2023-07-22T13:25:06;3.92;;;1.70;;
61709;SDS011;47633;51.494;5.386;2023-07-22T13:27:33;3.80;;;1.65;;
61709;SDS011;47633;51.494;5.386;2023-07-22T13:29:59;3.90;;;1.50;;
61709;SDS011;47633;51.494;5.386;2023-07-22T13:32:24;4.40;;;1.80;;
61709;SDS011;47633;51.494;5.386;2023-07-22T13:34:50;5.75;;;1.95;;
61709;SDS011;47633;51.494;5.386;2023-07-22T13:37:16;3.85;;;1.83;;
61709;SDS011;47633;51.494;5.386;2023-07-22T13:39:41;3.97;;;1.80;;
61709;SDS011;47633;51.494;5.386;2023-07-22T13:42:06;4.32;;;1.70;;
61709;SDS011;47633;51.494;5.386;2023-07-22T13:44:32;3.78;;;1.67;;
61709;SDS011;47633;51.494;5.386;2023-07-22T13:46:57;4.03;;;1.50;;
61709;SDS011;47633;51.494;5.386;2023-07-22T13:49:23;3.65;;;1.50;;
61709;SDS011;47633;51.494;5.386;2023-07-22T13:51:48;4.50;;;1.70;;
61709;SDS011;47633;51.494;5.386;2023-07-22T13:54:13;6.60;;;1.75;;
61709;SDS011;47633;51.494;5.386;2023-07-22T13:56:38;3.83;;;1.73;;
61709;SDS011;47633;51.494;5.386;2023-07-22T13:59:04;3.63;;;1.60;;
61709;SDS011;47633;51.494;5.386;2023-07-22T14:01:29;4.20;;;1.70;;
61709;SDS011;47633;51.494;5.386;2023-07-22T14:03:56;3.33;;;1.60;;
61709;SDS011;47633;51.494;5.386;2023-07-22T14:06:21;3.15;;;1.50;;
61709;SDS011;47633;51.494;5.386;2023-07-22T14:08:46;4.30;;;1.77;;
61709;SDS011;47633;51.494;5.386;2023-07-22T14:11:12;4.00;;;1.80;;
61709;SDS011;47633;51.494;5.386;2023-07-22T14:13:37;6.22;;;1.65;;
61709;SDS011;47633;51.494;5.386;2023-07-22T14:16:03;3.85;;;1.60;;
61709;SDS011;47633;51.494;5.386;2023-07-22T14:18:28;5.43;;;1.60;;
61709;SDS011;47633;51.494;5.386;2023-07-22T14:20:54;5.32;;;1.63;;
61709;SDS011;47633;51.494;5.386;2023-07-22T14:23:19;4.53;;;2.13;;
61709;SDS011;47633;51.494;5.386;2023-07-22T14:25:44;3.20;;;1.42;;
61709;SDS011;47633;51.494;5.386;2023-07-22T14:28:10;4.55;;;1.80;;
61709;SDS011;47633;51.494;5.386;2023-07-22T14:30:35;3.77;;;1.60;;
61709;SDS011;47633;51.494;5.386;2023-07-22T14:33:00;4.60;;;1.77;;
61709;SDS011;47633;51.494;5.386;2023-07-22T14:35:26;5.10;;;1.75;;
61709;SDS011;47633;51.494;5.386;2023-07-22T14:37:51;4.97;;;1.67;;
61709;SDS011;47633;51.494;5.386;2023-07-22T14:40:16;4.70;;;1.95;;
61709;SDS011;47633;51.494;5.386;2023-07-22T14:42:42;5.53;;;1.85;;
61709;SDS011;47633;51.494;5.386;2023-07-22T14:45:07;3.38;;;1.70;;
61709;SDS011;47633;51.494;5.386;2023-07-22T14:47:33;4.85;;;1.83;;
61709;SDS011;47633;51.494;5.386;2023-07-22T14:49:59;6.30;;;1.88;;
61709;SDS011;47633;51.494;5.386;2023-07-22T14:52:24;3.60;;;1.80;;
61709;SDS011;47633;51.494;5.386;2023-07-22T14:54:49;6.00;;;1.88;;
61709;SDS011;47633;51.494;5.386;2023-07-22T14:57:16;8.52;;;3.33;;